Time;durP1;ratioP1;P1;durP2;ratioP2;P2;SDS_P1;SDS_P2;PMS_P1;PMS_P2;Temp;Humidity;BMP_temperature;BMP_pressure;BME280_temperature;BME280_humidity;BME280_pressure;Samples;Min_cycle;Max_cycle;Signal;HPM_P1;HPM_P2
2023/08/22 00:01:36;;;;;;;;;;;;;;;;;;4965274;28;19951;-90
2023/08/22 00:04:02;;;;;;;;;;;;;;;;;;4964692;28;19922;-91
2023/08/22 00:06:40;;;;;;;;;;;;;;;;;;;;;
2023/08/22 00:09:14;;;;;;;;;;;;;;;;;;4977847;28;19914;-91
2023/08/22 00:14:37;;;;;;;;;;;;;;;;;;4952679;29;20638;-91
2023/08/22 00:17:02;;;;;;;;;;;;;;;;;;4920322;29;20242;-88
2023/08/22 00:19:29;;;;;;;;;;;;;;;;;;4935986;29;20017;-91
2023/08/22 00:22:07;;;;;;;;;;;;;;;;;;;;;
2023/08/22 00:24:35;;;;;;;;;;;;;;;;;;4950546;29;20326;-88
2023/08/22 00:27:21;;;;;;;;;;;;;;;;;;4920443;29;20920;-88
2023/08/22 00:29:56;;;;;;;;;;;;;;;;;;4926216;29;20029;-89
2023/08/22 00:32:22;;;;;;;;;;;;;;;;;;4936478;29;19927;-89
2023/08/22 00:34:49;;;;;;;;;;;;;;;;;;4951289;29;19934;-90
2023/08/22 00:37:16;;;;;;;;;;;;;;;;;;4920886;29;19934;-89
2023/08/22 00:39:41;;;;;;;;;;;;;;;;;;4920674;29;19990;-89
2023/08/22 00:42:07;;;;;;;;;;;;;;;;;;4936616;29;20484;-90
2023/08/22 00:44:34;;;;;;;;;;;;;;;;;;4952382;28;19915;-88
2023/08/22 00:47:00;;;;;;;;;;;;;;;;;;4972746;28;19928;-90
2023/08/22 00:49:28;;;;;;;;;;;;;;;;;;4955929;28;20008;-90
2023/08/22 00:51:54;;;;;;;;;;;;;;;;;;4956003;28;20101;-90
2023/08/22 00:54:25;;;;;;;;;;;;;;;;;;4970620;28;20134;-89
2023/08/22 00:56:54;;;;;;;;;;;;;;;;;;4968428;28;19974;-89
2023/08/22 00:59:19;;;;;;;;;;;;;;;;;;4956110;28;19961;-87
2023/08/22 01:01:47;;;;;;;;;;;;;;;;;;4957673;28;19914;-90
2023/08/22 01:04:17;;;;;;;;;;;;;;;;;;4955665;28;19926;-88
2023/08/22 01:06:49;;;;;;;;;;;;;;;;;;4956865;28;20027;-88
2023/08/22 01:09:16;;;;;;;;;;;;;;;;;;4987565;28;19925;-87
2023/08/22 01:11:58;;;;;;;;;;;;;;;;;;4968753;28;19974;-89
2023/08/22 01:14:24;;;;;;;;;;;;;;;;;;4957918;28;20141;-87
2023/08/22 01:16:50;;;;;;;;;;;;;;;;;;4972267;28;19924;-89
2023/08/22 01:19:16;;;;;;;;;;;;;;;;;;4957632;28;20416;-89
2023/08/22 01:21:41;;;;;;;;;;;;;;;;;;4958234;28;20092;-88
2023/08/22 01:24:07;;;;;;;;;;;;;;;;;;4973119;28;19914;-89
2023/08/22 01:26:32;;;;;;;;;;;;;;;;;;4976633;28;19918;-88
2023/08/22 01:28:58;;;;;;;;;;;;;;;;;;4971124;28;19922;-86
2023/08/22 01:31:23;;;;;;;;;;;;;;;;;;4968277;28;19922;-88
2023/08/22 01:33:51;;;;;;;;;;;;;;;;;;4963771;28;19914;-89
2023/08/22 01:36:17;;;;;;;;;;;;;;;;;;4965024;28;19914;-90
2023/08/22 01:38:43;;;;;;;;;;;;;;;;;;4961619;28;19914;-90
2023/08/22 01:44:16;;;;;;;;;;;;;;;;;;4954945;29;20411;-89
2023/08/22 01:46:42;;;;;;;;;;;;;;;;;;4947421;29;19910;-88
2023/08/22 01:49:07;;;;;;;;;;;;;;;;;;4981953;28;21461;-88
2023/08/22 01:51:33;;;;;;;;;;;;;;;;;;4988731;28;20341;-90
2023/08/22 01:54:01;;;;;;;;;;;;;;;;;;4977880;28;19962;-89
2023/08/22 01:56:26;;;;;;;;;;;;;;;;;;4981083;28;19914;-89
2023/08/22 01:58:55;;;;;;;;;;;;;;;;;;4976787;28;19914;-91
2023/08/22 02:01:24;;;;;;;;;;;;;;;;;;4989145;28;19926;-88
2023/08/22 02:03:51;;;;;;;;;;;;;;;;;;4989098;28;19918;-88
2023/08/22 02:06:16;;;;;;;;;;;;;;;;;;4973710;28;19925;-86
2023/08/22 02:08:47;;;;;;;;;;;;;;;;;;4981490;28;19940;-87
2023/08/22 02:11:27;;;;;;;;;;;;;;;;;;4991591;28;19937;-88
2023/08/22 02:13:55;;;;;;;;;;;;;;;;;;4966448;28;19918;-89
2023/08/22 02:19:56;;;;;;;;;;;;;;;;;;4977921;28;19945;-88
2023/08/22 02:22:23;;;;;;;;;;;;;;;;;;4980414;28;20392;-88
2023/08/22 02:25:09;;;;;;;;;;;;;;;;;;4970666;28;19948;-91
2023/08/22 02:27:35;;;;;;;;;;;;;;;;;;4962783;28;20323;-90
2023/08/22 02:30:00;;;;;;;;;;;;;;;;;;4963575;28;19925;-90
2023/08/22 02:32:29;;;;;;;;;;;;;;;;;;4960378;28;20642;-87
2023/08/22 02:34:57;;;;;;;;;;;;;;;;;;4961310;28;19928;-90
2023/08/22 02:37:27;;;;;;;;;;;;;;;;;;4974826;28;19922;-90
2023/08/22 02:39:54;;;;;;;;;;;;;;;;;;4959206;28;19925;-89
2023/08/22 02:42:19;;;;;;;;;;;;;;;;;;4974656;28;19946;-89
2023/08/22 02:44:44;;;;;;;;;;;;;;;;;;4957107;28;19930;-90
2023/08/22 02:47:29;;;;;;;;;;;;;;;;;;4975862;28;19926;-85
2023/08/22 02:49:57;;;;;;;;;;;;;;;;;;4959380;28;19949;-91
2023/08/22 02:52:25;;;;;;;;;;;;;;;;;;4957975;28;19918;-87
2023/08/22 02:54:51;;;;;;;;;;;;;;;;;;4974707;28;19921;-88
2023/08/22 02:57:18;;;;;;;;;;;;;;;;;;4958695;28;19914;-90
2023/08/22 02:59:48;;;;;;;;;;;;;;;;;;4958996;28;19961;-90
2023/08/22 03:02:19;;;;;;;;;;;;;;;;;;4974722;28;19924;-90
2023/08/22 03:04:49;;;;;;;;;;;;;;;;;;4959373;28;19915;-88
2023/08/22 03:07:14;;;;;;;;;;;;;;;;;;4957860;28;19922;-90
2023/08/22 03:09:40;;;;;;;;;;;;;;;;;;4973647;28;20232;-90
2023/08/22 03:12:08;;;;;;;;;;;;;;;;;;4973517;28;19918;-89
2023/08/22 03:14:36;;;;;;;;;;;;;;;;;;4957168;28;20371;-89
2023/08/22 03:17:02;;;;;;;;;;;;;;;;;;4957439;28;20020;-91
2023/08/22 03:19:27;;;;;;;;;;;;;;;;;;4957696;28;19961;-90
2023/08/22 03:21:53;;;;;;;;;;;;;;;;;;4960584;28;19976;-91
2023/08/22 03:24:34;;;;;;;;;;;;;;;;;;;;;
2023/08/22 03:27:05;;;;;;;;;;;;;;;;;;4970488;28;19926;-88
2023/08/22 03:29:31;;;;;;;;;;;;;;;;;;4957957;28;20560;-87
2023/08/22 03:31:57;;;;;;;;;;;;;;;;;;4961026;28;20530;-88
2023/08/22 03:34:26;;;;;;;;;;;;;;;;;;4979919;28;19973;-87
2023/08/22 03:36:51;;;;;;;;;;;;;;;;;;4976999;28;19925;-88
2023/08/22 03:39:19;;;;;;;;;;;;;;;;;;4975662;28;20331;-90
2023/08/22 03:41:44;;;;;;;;;;;;;;;;;;4976159;28;20040;-91
2023/08/22 03:44:14;;;;;;;;;;;;;;;;;;4958881;28;20016;-87
2023/08/22 03:46:49;;;;;;;;;;;;;;;;;;4973201;28;19933;-88
2023/08/22 03:55:49;;;;;;;;;;;;;;;;;;4936437;29;19926;-89
2023/08/22 04:11:23;;;;;;;;;;;;;;;;;;4943854;29;20392;-88
2023/08/22 04:20:13;;;;;;;;;;;;;;;;;;4957322;29;19920;-91
2023/08/22 04:33:02;;;;;;;;;;;;;;;;;;4968189;23;19941;-62
2023/08/22 04:35:29;;;;;;;;;;;;;;;;;;4989802;28;19921;-62
2023/08/22 04:37:55;;;;;;;;;;;;;;;;;;4996224;28;20009;-62
2023/08/22 04:40:20;;;;;;;;;;;;;;;;;;4983723;28;19925;-62
2023/08/22 04:42:45;;;;;;;;;;;;;;;;;;4973054;28;20652;-63
2023/08/22 04:45:10;;;;;;;;;;;;;;;;;;4984010;28;19929;-62
2023/08/22 04:47:38;;;;;;;;;;;;;;;;;;4980724;28;19917;-63
2023/08/22 04:50:06;;;;;;;;;;;;;;;;;;4997805;28;20011;-62
2023/08/22 04:52:31;;;;;;;;;;;;;;;;;;4982615;28;19921;-63
2023/08/22 04:54:56;;;;;;;;;;;;;;;;;;4983193;28;19972;-63
2023/08/22 04:57:23;;;;;;;;;;;;;;;;;;4980873;28;22060;-62
2023/08/22 04:59:49;;;;;;;;;;;;;;;;;;4999732;28;19917;-62
2023/08/22 05:02:14;;;;;;;;;;;;;;;;;;5001750;28;19928;-62
2023/08/22 05:04:39;;;;;;;;;;;;;;;;;;4999225;28;19927;-63
2023/08/22 05:07:07;;;;;;;;;;;;;;;;;;4973717;28;19957;-63
2023/08/22 05:09:32;;;;;;;;;;;;;;;;;;4984841;28;20008;-62
2023/08/22 05:11:58;;;;;;;;;;;;;;;;;;4984725;28;19921;-63
2023/08/22 05:14:23;;;;;;;;;;;;;;;;;;4997841;28;20103;-63
2023/08/22 05:16:53;;;;;;;;;;;;;;;;;;4996116;28;19929;-63
2023/08/22 05:19:22;;;;;;;;;;;;;;;;;;4999385;28;19921;-63
2023/08/22 05:21:47;;;;;;;;;;;;;;;;;;4981565;28;21884;-63
2023/08/22 05:24:12;;;;;;;;;;;;;;;;;;4998545;28;19963;-63
2023/08/22 05:26:40;;;;;;;;;;;;;;;;;;4995911;28;19921;-63
2023/08/22 05:29:08;;;;;;;;;;;;;;;;;;4999880;28;21727;-63
2023/08/22 05:31:34;;;;;;;;;;;;;;;;;;4999693;28;19917;-63
2023/08/22 05:34:02;;;;;;;;;;;;;;;;;;4972314;28;20031;-63
2023/08/22 05:36:30;;;;;;;;;;;;;;;;;;4999600;28;19985;-64
2023/08/22 05:38:55;;;;;;;;;;;;;;;;;;4979217;28;19918;-63
2023/08/22 05:41:21;;;;;;;;;;;;;;;;;;5001563;28;20035;-63
2023/08/22 05:43:48;;;;;;;;;;;;;;;;;;5004226;28;19928;-63
2023/08/22 05:46:14;;;;;;;;;;;;;;;;;;5002004;28;19921;-63
2023/08/22 05:48:42;;;;;;;;;;;;;;;;;;4988702;28;19924;-63
2023/08/22 05:51:07;;;;;;;;;;;;;;;;;;4980383;28;19952;-62
2023/08/22 05:53:35;;;;;;;;;;;;;;;;;;4996868;28;19968;-63
2023/08/22 05:56:04;;;;;;;;;;;;;;;;;;4981180;28;21314;-63
2023/08/22 05:58:34;;;;;;;;;;;;;;;;;;4971841;28;19987;-63
2023/08/22 06:01:02;;;;;;;;;;;;;;;;;;4971966;28;19929;-63
2023/08/22 06:03:30;;;;;;;;;;;;;;;;;;4984236;28;20017;-63
2023/08/22 06:05:57;;;;;;;;;;;;;;;;;;5001537;28;20464;-62
2023/08/22 06:08:25;;;;;;;;;;;;;;;;;;4986147;28;19932;-62
2023/08/22 06:10:50;;;;;;;;;;;;;;;;;;5001216;28;20539;-62
2023/08/22 06:13:18;;;;;;;;;;;;;;;;;;5002424;28;19917;-62
2023/08/22 06:15:43;;;;;;;;;;;;;;;;;;4994362;28;19928;-63
2023/08/22 06:18:08;;;;;;;;;;;;;;;;;;4999247;28;20928;-62
2023/08/22 06:20:36;;;;;;;;;;;;;;;;;;4980943;28;19917;-63
2023/08/22 06:23:04;;;;;;;;;;;;;;;;;;4984685;28;20958;-62
2023/08/22 06:25:31;;;;;;;;;;;;;;;;;;4999059;28;20064;-62
2023/08/22 06:27:59;;;;;;;;;;;;;;;;;;5000388;28;19921;-62
2023/08/22 06:30:27;;;;;;;;;;;;;;;;;;4991714;28;20457;-62
2023/08/22 06:32:55;;;;;;;;;;;;;;;;;;5001653;28;19929;-63
2023/08/22 06:35:20;;;;;;;;;;;;;;;;;;4983330;28;20016;-64
2023/08/22 06:37:45;;;;;;;;;;;;;;;;;;4982571;28;19923;-63
2023/08/22 06:40:11;;;;;;;;;;;;;;;;;;4992533;28;19987;-63
2023/08/22 06:42:36;;;;;;;;;;;;;;;;;;5001755;28;19969;-63
2023/08/22 06:45:02;;;;;;;;;;;;;;;;;;4982582;28;19964;-63
2023/08/22 06:47:30;;;;;;;;;;;;;;;;;;4984483;28;19952;-63
2023/08/22 06:49:55;;;;;;;;;;;;;;;;;;4999538;28;19913;-63
2023/08/22 06:52:20;;;;;;;;;;;;;;;;;;4996089;28;20486;-63
2023/08/22 06:54:46;;;;;;;;;;;;;;;;;;4997225;28;21388;-63
2023/08/22 06:57:16;;;;;;;;;;;;;;;;;;4986709;28;20102;-63
2023/08/22 06:59:41;;;;;;;;;;;;;;;;;;4981792;28;19949;-63
2023/08/22 07:02:09;;;;;;;;;;;;;;;;;;4979689;28;20016;-62
2023/08/22 07:04:34;;;;;;;;;;;;;;;;;;5001592;28;19921;-62
2023/08/22 07:06:59;;;;;;;;;;;;;;;;;;5000714;28;21846;-62
2023/08/22 07:09:25;;;;;;;;;;;;;;;;;;5002421;28;19967;-62
2023/08/22 07:11:50;;;;;;;;;;;;;;;;;;4973686;28;19953;-63
2023/08/22 07:14:15;;;;;;;;;;;;;;;;;;4992979;28;20000;-63
2023/08/22 07:16:41;;;;;;;;;;;;;;;;;;4983858;28;19917;-63
2023/08/22 07:19:06;;;;;;;;;;;;;;;;;;4992113;28;19952;-63
2023/08/22 07:21:37;;;;;;;;;;;;;;;;;;4982100;28;19962;-62
2023/08/22 07:24:03;;;;;;;;;;;;;;;;;;5002755;28;19944;-63
2023/08/22 07:26:31;;;;;;;;;;;;;;;;;;4985288;28;19921;-63
2023/08/22 07:28:56;;;;;;;;;;;;;;;;;;4966293;28;19927;-62
2023/08/22 07:31:22;;;;;;;;;;;;;;;;;;4999065;28;19975;-63
2023/08/22 07:33:47;;;;;;;;;;;;;;;;;;4983005;28;19933;-63
2023/08/22 07:36:12;;;;;;;;;;;;;;;;;;4984641;28;20398;-63
2023/08/22 07:38:42;;;;;;;;;;;;;;;;;;5000384;28;19924;-62
2023/08/22 07:41:08;;;;;;;;;;;;;;;;;;4983624;28;19933;-62
2023/08/22 07:43:38;;;;;;;;;;;;;;;;;;4993624;28;19981;-62
2023/08/22 07:46:04;;;;;;;;;;;;;;;;;;4984367;28;19929;-63
2023/08/22 07:48:29;;;;;;;;;;;;;;;;;;4982958;28;19951;-63
2023/08/22 07:50:54;;;;;;;;;;;;;;;;;;4984002;28;19917;-63
2023/08/22 07:53:19;;;;;;;;;;;;;;;;;;5001807;28;19928;-64
2023/08/22 07:55:47;;;;;;;;;;;;;;;;;;4983854;28;19945;-62
2023/08/22 07:58:16;;;;;;;;;;;;;;;;;;5002087;28;19921;-63
2023/08/22 08:00:45;;;;;;;;;;;;;;;;;;5001689;28;21200;-63
2023/08/22 08:03:10;;;;;;;;;;;;;;;;;;5002570;28;19935;-63
2023/08/22 08:05:35;;;;;;;;;;;;;;;;;;5002163;28;20973;-63
2023/08/22 08:08:00;;;;;;;;;;;;;;;;;;4984932;28;19917;-64
2023/08/22 08:10:28;;;;;;;;;;;;;;;;;;4987368;28;19917;-64
2023/08/22 08:12:53;;;;;;;;;;;;;;;;;;5001030;28;19921;-63
2023/08/22 08:15:19;;;;;;;;;;;;;;;;;;5002825;28;20811;-64
2023/08/22 08:17:44;;;;;;;;;;;;;;;;;;4985395;28;20011;-64
2023/08/22 08:20:10;;;;;;;;;;;;;;;;;;4983245;28;20016;-64
2023/08/22 08:22:36;;;;;;;;;;;;;;;;;;4978258;28;19991;-65
2023/08/22 08:25:02;;;;;;;;;;;;;;;;;;4971683;28;19922;-64
2023/08/22 08:27:28;;;;;;;;;;;;;;;;;;4983554;28;19921;-65
2023/08/22 08:29:53;;;;;;;;;;;;;;;;;;4976600;28;19922;-65
2023/08/22 08:32:21;;;;;;;;;;;;;;;;;;4984385;28;19964;-63
2023/08/22 08:34:49;;;;;;;;;;;;;;;;;;4997968;28;19932;-64
2023/08/22 08:37:18;;;;;;;;;;;;;;;;;;4979814;28;19928;-63
2023/08/22 08:39:46;;;;;;;;;;;;;;;;;;5000882;28;20059;-64
2023/08/22 08:42:15;;;;;;;;;;;;;;;;;;4982298;28;19917;-63
2023/08/22 08:44:45;;;;;;;;;;;;;;;;;;4984689;28;19948;-63
2023/08/22 08:47:10;;;;;;;;;;;;;;;;;;4999852;28;21778;-62
2023/08/22 08:49:38;;;;;;;;;;;;;;;;;;4981409;28;19967;-64
2023/08/22 08:52:07;;;;;;;;;;;;;;;;;;4998510;28;19917;-63
2023/08/22 08:54:37;;;;;;;;;;;;;;;;;;4982379;28;19921;-64
2023/08/22 08:57:05;;;;;;;;;;;;;;;;;;4985337;28;19957;-64
2023/08/22 08:59:30;;;;;;;;;;;;;;;;;;4999011;28;20412;-65
2023/08/22 09:01:55;;;;;;;;;;;;;;;;;;4991061;28;20932;-65
2023/08/22 09:04:21;;;;;;;;;;;;;;;;;;4981393;28;19968;-64
2023/08/22 09:06:46;;;;;;;;;;;;;;;;;;4989811;28;19921;-65
2023/08/22 09:09:17;;;;;;;;;;;;;;;;;;5000448;28;19921;-63
2023/08/22 09:11:45;;;;;;;;;;;;;;;;;;4993213;28;19928;-64
2023/08/22 09:14:10;;;;;;;;;;;;;;;;;;4995201;28;19917;-63
2023/08/22 09:16:35;;;;;;;;;;;;;;;;;;4999969;28;19960;-64
2023/08/22 09:19:01;;;;;;;;;;;;;;;;;;4984230;28;19917;-63
2023/08/22 09:21:28;;;;;;;;;;;;;;;;;;5002794;28;20003;-63
2023/08/22 09:23:54;;;;;;;;;;;;;;;;;;5004130;28;20004;-63
2023/08/22 09:26:19;;;;;;;;;;;;;;;;;;5000944;28;19968;-63
2023/08/22 09:28:44;;;;;;;;;;;;;;;;;;5003939;28;19947;-63
2023/08/22 09:31:10;;;;;;;;;;;;;;;;;;4987944;28;20026;-64
2023/08/22 09:33:38;;;;;;;;;;;;;;;;;;4976912;28;19940;-64
2023/08/22 09:36:06;;;;;;;;;;;;;;;;;;5005050;28;19928;-66
2023/08/22 09:38:34;;;;;;;;;;;;;;;;;;5003458;28;19921;-64
2023/08/22 09:40:59;;;;;;;;;;;;;;;;;;5003342;28;19952;-64
2023/08/22 09:43:24;;;;;;;;;;;;;;;;;;4983746;28;20008;-63
2023/08/22 09:45:52;;;;;;;;;;;;;;;;;;4999690;28;19936;-64
2023/08/22 09:48:18;;;;;;;;;;;;;;;;;;4984897;28;19957;-64
2023/08/22 09:50:45;;;;;;;;;;;;;;;;;;5001746;28;20028;-63
2023/08/22 09:53:11;;;;;;;;;;;;;;;;;;5003088;28;19922;-63
2023/08/22 09:55:40;;;;;;;;;;;;;;;;;;4994083;28;19924;-63
2023/08/22 09:58:05;;;;;;;;;;;;;;;;;;5002021;28;20060;-63
2023/08/22 10:00:33;;;;;;;;;;;;;;;;;;4993369;28;19967;-63
2023/08/22 10:02:58;;;;;;;;;;;;;;;;;;4987000;28;19921;-65
2023/08/22 10:05:23;;;;;;;;;;;;;;;;;;5004084;28;19925;-63
2023/08/22 10:07:49;;;;;;;;;;;;;;;;;;5003101;28;19959;-64
2023/08/22 10:10:14;;;;;;;;;;;;;;;;;;5004138;28;19925;-64
2023/08/22 10:12:42;;;;;;;;;;;;;;;;;;4984426;28;20510;-64
2023/08/22 10:15:10;;;;;;;;;;;;;;;;;;5000559;28;19922;-64
2023/08/22 10:17:39;;;;;;;;;;;;;;;;;;4984089;28;19971;-64
2023/08/22 10:20:08;;;;;;;;;;;;;;;;;;5002977;28;20702;-64
2023/08/22 10:22:33;;;;;;;;;;;;;;;;;;4984405;28;19918;-65
2023/08/22 10:24:58;;;;;;;;;;;;;;;;;;5001367;28;19951;-66
2023/08/22 10:27:23;;;;;;;;;;;;;;;;;;4983671;28;19975;-65
2023/08/22 10:29:51;;;;;;;;;;;;;;;;;;4985043;28;19925;-64
2023/08/22 10:32:19;;;;;;;;;;;;;;;;;;5003153;28;20628;-65
2023/08/22 10:34:44;;;;;;;;;;;;;;;;;;4999766;28;19932;-66
2023/08/22 10:37:10;;;;;;;;;;;;;;;;;;4983023;28;19917;-65
2023/08/22 10:39:41;;;;;;;;;;;;;;;;;;5002415;28;20056;-64
2023/08/22 10:42:09;;;;;;;;;;;;;;;;;;4992332;28;19948;-66
2023/08/22 10:44:36;;;;;;;;;;;;;;;;;;5002336;28;20679;-63
2023/08/22 10:47:02;;;;;;;;;;;;;;;;;;4983261;28;19950;-66
2023/08/22 10:49:28;;;;;;;;;;;;;;;;;;4965974;28;20293;-64
2023/08/22 10:51:53;;;;;;;;;;;;;;;;;;5000078;28;19928;-65
2023/08/22 10:54:19;;;;;;;;;;;;;;;;;;4983481;28;20031;-64
2023/08/22 10:56:47;;;;;;;;;;;;;;;;;;4984684;28;19921;-63
2023/08/22 10:59:17;;;;;;;;;;;;;;;;;;5000136;28;19917;-64
2023/08/22 11:01:45;;;;;;;;;;;;;;;;;;5001953;28;19928;-65
2023/08/22 11:04:13;;;;;;;;;;;;;;;;;;4980693;28;19961;-66
2023/08/22 11:06:39;;;;;;;;;;;;;;;;;;4990163;28;20041;-64
2023/08/22 11:09:04;;;;;;;;;;;;;;;;;;4983246;28;20436;-65
2023/08/22 11:11:29;;;;;;;;;;;;;;;;;;4990967;28;20603;-64
2023/08/22 11:13:57;;;;;;;;;;;;;;;;;;4966924;28;20013;-64
2023/08/22 11:16:23;;;;;;;;;;;;;;;;;;5002100;28;19914;-65
2023/08/22 11:18:50;;;;;;;;;;;;;;;;;;4999949;28;19918;-67
2023/08/22 11:21:18;;;;;;;;;;;;;;;;;;4985314;28;19931;-65
2023/08/22 11:23:44;;;;;;;;;;;;;;;;;;4983787;28;19929;-65
2023/08/22 11:26:12;;;;;;;;;;;;;;;;;;5000342;28;20295;-64
2023/08/22 11:28:37;;;;;;;;;;;;;;;;;;4967475;28;19922;-64
2023/08/22 11:31:04;;;;;;;;;;;;;;;;;;4998646;28;19928;-65
2023/08/22 11:33:29;;;;;;;;;;;;;;;;;;5000530;28;19929;-63
2023/08/22 11:35:54;;;;;;;;;;;;;;;;;;4981338;28;20292;-63
2023/08/22 11:38:19;;;;;;;;;;;;;;;;;;4998939;28;20896;-63
2023/08/22 11:40:45;;;;;;;;;;;;;;;;;;4998520;28;19940;-64
2023/08/22 11:43:10;;;;;;;;;;;;;;;;;;4998518;28;20047;-65
2023/08/22 11:45:35;;;;;;;;;;;;;;;;;;4994115;28;19925;-64
2023/08/22 11:48:01;;;;;;;;;;;;;;;;;;4982558;28;19917;-64
2023/08/22 11:50:27;;;;;;;;;;;;;;;;;;5000010;28;20352;-64
2023/08/22 11:52:52;;;;;;;;;;;;;;;;;;4984043;28;21040;-64
2023/08/22 11:55:17;;;;;;;;;;;;;;;;;;4983504;28;19952;-64
2023/08/22 11:57:43;;;;;;;;;;;;;;;;;;4980682;28;19917;-63
2023/08/22 12:00:08;;;;;;;;;;;;;;;;;;4997104;28;21530;-64
2023/08/22 12:02:34;;;;;;;;;;;;;;;;;;4979458;28;19926;-64
2023/08/22 12:04:59;;;;;;;;;;;;;;;;;;4997306;28;20679;-64
2023/08/22 12:07:24;;;;;;;;;;;;;;;;;;4983337;28;20567;-61
2023/08/22 12:09:50;;;;;;;;;;;;;;;;;;4985297;28;20462;-64
2023/08/22 12:12:18;;;;;;;;;;;;;;;;;;5001082;28;19960;-63
2023/08/22 12:14:43;;;;;;;;;;;;;;;;;;4982072;28;20016;-65
2023/08/22 12:17:09;;;;;;;;;;;;;;;;;;5000374;28;19975;-65
2023/08/22 12:19:34;;;;;;;;;;;;;;;;;;4999482;28;19960;-65
2023/08/22 12:22:00;;;;;;;;;;;;;;;;;;4999052;28;19928;-64
2023/08/22 12:24:28;;;;;;;;;;;;;;;;;;4984608;28;19954;-64
2023/08/22 12:26:53;;;;;;;;;;;;;;;;;;4982930;28;19936;-65
2023/08/22 12:29:18;;;;;;;;;;;;;;;;;;4990853;28;19921;-64
2023/08/22 12:31:47;;;;;;;;;;;;;;;;;;5000559;28;20407;-64
2023/08/22 12:34:15;;;;;;;;;;;;;;;;;;4982691;28;19941;-64
2023/08/22 12:36:43;;;;;;;;;;;;;;;;;;4965155;28;19970;-66
2023/08/22 12:39:12;;;;;;;;;;;;;;;;;;4991177;28;19921;-64
2023/08/22 12:41:37;;;;;;;;;;;;;;;;;;4990286;28;20546;-65
2023/08/22 12:44:02;;;;;;;;;;;;;;;;;;5001349;28;19924;-64
2023/08/22 12:46:27;;;;;;;;;;;;;;;;;;4999966;28;21707;-63
2023/08/22 12:48:58;;;;;;;;;;;;;;;;;;4998924;28;19940;-64
2023/08/22 12:51:26;;;;;;;;;;;;;;;;;;4985309;28;19922;-64
2023/08/22 12:53:51;;;;;;;;;;;;;;;;;;5000178;28;19992;-64
2023/08/22 12:56:17;;;;;;;;;;;;;;;;;;4998535;28;19922;-63
2023/08/22 12:58:45;;;;;;;;;;;;;;;;;;4998300;28;21322;-64
2023/08/22 13:01:10;;;;;;;;;;;;;;;;;;4989194;28;19929;-64
2023/08/22 13:03:38;;;;;;;;;;;;;;;;;;4999725;28;19955;-64
2023/08/22 13:06:04;;;;;;;;;;;;;;;;;;4984582;28;19929;-66
2023/08/22 13:08:32;;;;;;;;;;;;;;;;;;5001180;28;20460;-65
2023/08/22 13:11:00;;;;;;;;;;;;;;;;;;4982867;28;19925;-64
2023/08/22 13:13:25;;;;;;;;;;;;;;;;;;5003709;28;19925;-64
2023/08/22 13:15:51;;;;;;;;;;;;;;;;;;4983713;28;19933;-64
2023/08/22 13:18:18;;;;;;;;;;;;;;;;;;4981589;28;19918;-65
2023/08/22 13:20:44;;;;;;;;;;;;;;;;;;4984711;28;19917;-65
2023/08/22 13:23:09;;;;;;;;;;;;;;;;;;4998993;28;19955;-65
2023/08/22 13:25:34;;;;;;;;;;;;;;;;;;4985680;28;19921;-65
2023/08/22 13:28:00;;;;;;;;;;;;;;;;;;4997129;28;19921;-63
2023/08/22 13:30:26;;;;;;;;;;;;;;;;;;4985092;28;19940;-64
2023/08/22 13:32:51;;;;;;;;;;;;;;;;;;4997865;28;19970;-65
2023/08/22 13:35:16;;;;;;;;;;;;;;;;;;4984719;28;19917;-62
2023/08/22 13:37:44;;;;;;;;;;;;;;;;;;4983060;28;19924;-64
2023/08/22 13:40:09;;;;;;;;;;;;;;;;;;5001938;28;19953;-64
2023/08/22 13:42:35;;;;;;;;;;;;;;;;;;5000852;28;19929;-61
2023/08/22 13:45:00;;;;;;;;;;;;;;;;;;4983183;28;20872;-64
2023/08/22 13:47:26;;;;;;;;;;;;;;;;;;4981418;28;19940;-63
2023/08/22 13:49:51;;;;;;;;;;;;;;;;;;4987855;28;19921;-64
2023/08/22 13:52:16;;;;;;;;;;;;;;;;;;4982143;28;19928;-64
2023/08/22 13:54:41;;;;;;;;;;;;;;;;;;4985631;28;19972;-63
2023/08/22 13:57:09;;;;;;;;;;;;;;;;;;4973090;28;19921;-62
2023/08/22 13:59:37;;;;;;;;;;;;;;;;;;5001218;28;19928;-63
2023/08/22 14:02:08;;;;;;;;;;;;;;;;;;4984405;28;20447;-63
2023/08/22 14:04:33;;;;;;;;;;;;;;;;;;4986503;28;19925;-65
2023/08/22 14:07:01;;;;;;;;;;;;;;;;;;4985153;28;19936;-64
2023/08/22 14:09:27;;;;;;;;;;;;;;;;;;4988024;28;19917;-63
2023/08/22 14:11:57;;;;;;;;;;;;;;;;;;4974803;28;20415;-63
2023/08/22 14:14:23;;;;;;;;;;;;;;;;;;5002564;28;19929;-63
2023/08/22 14:16:48;;;;;;;;;;;;;;;;;;4984926;28;19917;-63
2023/08/22 14:19:13;;;;;;;;;;;;;;;;;;4993108;28;19921;-63
2023/08/22 14:21:39;;;;;;;;;;;;;;;;;;4986153;28;19921;-63
2023/08/22 14:24:04;;;;;;;;;;;;;;;;;;4999398;28;19928;-63
2023/08/22 14:26:32;;;;;;;;;;;;;;;;;;5002221;28;20746;-67
2023/08/22 14:28:57;;;;;;;;;;;;;;;;;;4981718;28;19918;-63
2023/08/22 14:31:28;;;;;;;;;;;;;;;;;;4997712;28;19979;-63
2023/08/22 14:33:53;;;;;;;;;;;;;;;;;;4985845;28;19929;-61
2023/08/22 14:36:19;;;;;;;;;;;;;;;;;;4981075;28;19918;-63
2023/08/22 14:38:44;;;;;;;;;;;;;;;;;;4987078;28;20016;-63
2023/08/22 14:41:09;;;;;;;;;;;;;;;;;;4999924;28;19921;-63
2023/08/22 14:43:38;;;;;;;;;;;;;;;;;;4975091;28;19959;-63
2023/08/22 14:46:04;;;;;;;;;;;;;;;;;;4997638;28;20308;-63
2023/08/22 14:48:29;;;;;;;;;;;;;;;;;;4985762;28;19928;-63
2023/08/22 14:50:54;;;;;;;;;;;;;;;;;;4980814;28;19921;-63
2023/08/22 14:53:22;;;;;;;;;;;;;;;;;;4981290;28;20281;-64
2023/08/22 14:55:48;;;;;;;;;;;;;;;;;;4989599;28;19922;-64
2023/08/22 14:58:16;;;;;;;;;;;;;;;;;;4985060;28;20002;-63
2023/08/22 15:00:41;;;;;;;;;;;;;;;;;;4998458;28;19917;-61
2023/08/22 15:03:06;;;;;;;;;;;;;;;;;;5001070;28;19928;-63
2023/08/22 15:05:34;;;;;;;;;;;;;;;;;;4981785;28;19979;-62
2023/08/22 15:08:03;;;;;;;;;;;;;;;;;;4990488;28;19944;-63
2023/08/22 15:10:31;;;;;;;;;;;;;;;;;;4997702;28;19921;-63
2023/08/22 15:12:59;;;;;;;;;;;;;;;;;;4998526;28;19944;-60
2023/08/22 15:15:25;;;;;;;;;;;;;;;;;;4978154;28;20025;-63
2023/08/22 15:17:50;;;;;;;;;;;;;;;;;;4999547;28;19917;-65
2023/08/22 15:20:15;;;;;;;;;;;;;;;;;;4991037;28;19921;-64
2023/08/22 15:22:43;;;;;;;;;;;;;;;;;;4975115;28;19927;-64
2023/08/22 15:25:11;;;;;;;;;;;;;;;;;;5001301;28;19921;-64
2023/08/22 15:27:39;;;;;;;;;;;;;;;;;;4998949;28;19928;-63
2023/08/22 15:30:05;;;;;;;;;;;;;;;;;;5000292;28;19922;-63
2023/08/22 15:32:32;;;;;;;;;;;;;;;;;;5000632;28;20845;-63
2023/08/22 15:34:58;;;;;;;;;;;;;;;;;;4990349;28;19979;-62
2023/08/22 15:37:23;;;;;;;;;;;;;;;;;;4983252;28;20359;-64
2023/08/22 15:39:48;;;;;;;;;;;;;;;;;;4984119;28;19917;-64
2023/08/22 15:42:13;;;;;;;;;;;;;;;;;;4999547;28;20040;-63
2023/08/22 15:44:42;;;;;;;;;;;;;;;;;;4978630;28;19929;-64
2023/08/22 15:47:09;;;;;;;;;;;;;;;;;;4989838;28;19921;-63
2023/08/22 15:49:34;;;;;;;;;;;;;;;;;;4983239;28;19928;-63
2023/08/22 15:52:00;;;;;;;;;;;;;;;;;;4997269;28;19964;-63
2023/08/22 15:54:27;;;;;;;;;;;;;;;;;;4982888;28;19921;-63
2023/08/22 15:56:52;;;;;;;;;;;;;;;;;;4989749;28;20180;-61
2023/08/22 15:59:21;;;;;;;;;;;;;;;;;;4983001;28;19963;-63
2023/08/22 16:01:46;;;;;;;;;;;;;;;;;;4985201;28;20044;-63
2023/08/22 16:04:11;;;;;;;;;;;;;;;;;;4982215;28;19925;-64
2023/08/22 16:06:37;;;;;;;;;;;;;;;;;;5000293;28;19928;-63
2023/08/22 16:09:05;;;;;;;;;;;;;;;;;;4996213;28;19924;-63
2023/08/22 16:11:30;;;;;;;;;;;;;;;;;;4997912;28;19922;-64
2023/08/22 16:13:56;;;;;;;;;;;;;;;;;;4981635;28;19918;-63
2023/08/22 16:16:24;;;;;;;;;;;;;;;;;;4985541;28;19924;-63
2023/08/22 16:18:49;;;;;;;;;;;;;;;;;;4998418;28;19917;-63
2023/08/22 16:21:14;;;;;;;;;;;;;;;;;;4997376;28;19924;-65
2023/08/22 16:23:45;;;;;;;;;;;;;;;;;;4996910;28;19927;-62
2023/08/22 16:26:13;;;;;;;;;;;;;;;;;;4998562;28;19932;-62
2023/08/22 16:28:39;;;;;;;;;;;;;;;;;;4998724;28;19921;-62
2023/08/22 16:31:07;;;;;;;;;;;;;;;;;;4981876;28;19929;-64
2023/08/22 16:33:32;;;;;;;;;;;;;;;;;;4981563;28;20016;-63
2023/08/22 16:36:00;;;;;;;;;;;;;;;;;;4991259;28;20846;-62
2023/08/22 16:38:28;;;;;;;;;;;;;;;;;;4998254;28;20923;-62
2023/08/22 16:40:54;;;;;;;;;;;;;;;;;;4983169;28;19917;-60
2023/08/22 16:43:19;;;;;;;;;;;;;;;;;;4980959;28;20120;-64
2023/08/22 16:45:45;;;;;;;;;;;;;;;;;;4995447;28;19940;-63
2023/08/22 16:48:10;;;;;;;;;;;;;;;;;;4981237;28;19995;-63
2023/08/22 16:50:35;;;;;;;;;;;;;;;;;;4979970;28;19921;-63
2023/08/22 16:53:03;;;;;;;;;;;;;;;;;;4981038;28;19921;-63
2023/08/22 16:55:31;;;;;;;;;;;;;;;;;;4998438;28;19927;-61
2023/08/22 16:57:56;;;;;;;;;;;;;;;;;;4980687;28;19925;-62
2023/08/22 17:00:25;;;;;;;;;;;;;;;;;;4993913;28;19921;-63
2023/08/22 17:02:50;;;;;;;;;;;;;;;;;;4995817;28;19921;-63
2023/08/22 17:05:16;;;;;;;;;;;;;;;;;;4995247;28;19929;-64
2023/08/22 17:07:41;;;;;;;;;;;;;;;;;;4992718;28;19922;-64
2023/08/22 17:10:09;;;;;;;;;;;;;;;;;;4976192;28;20024;-64
2023/08/22 17:12:34;;;;;;;;;;;;;;;;;;4968522;28;20008;-63
2023/08/22 17:15:00;;;;;;;;;;;;;;;;;;4996591;28;19997;-64
2023/08/22 17:17:25;;;;;;;;;;;;;;;;;;4983730;28;19921;-65
2023/08/22 17:19:53;;;;;;;;;;;;;;;;;;4998036;28;19921;-62
2023/08/22 17:22:21;;;;;;;;;;;;;;;;;;4980921;28;20377;-63
2023/08/22 17:24:46;;;;;;;;;;;;;;;;;;4978951;28;20479;-64
2023/08/22 17:27:12;;;;;;;;;;;;;;;;;;4993661;28;19983;-63
2023/08/22 17:29:39;;;;;;;;;;;;;;;;;;4995519;28;19917;-63
2023/08/22 17:32:08;;;;;;;;;;;;;;;;;;4978869;28;19940;-63